createdAt,value
2023-04-12T00:01:18.768Z,10.65
2023-04-12T00:03:51.048Z,10.88
2023-04-12T00:06:18.557Z,10.00
2023-04-12T00:08:47.012Z,10.75
2023-04-12T00:11:14.335Z,7.07
2023-04-12T00:13:41.984Z,8.98
2023-04-12T00:16:10.212Z,7.50
2023-04-12T00:18:37.805Z,6.65
2023-04-12T00:21:05.570Z,9.57
2023-04-12T00:23:33.975Z,7.28
2023-04-12T00:26:01.290Z,8.52
2023-04-12T00:28:28.868Z,8.35
2023-04-12T00:30:56.154Z,6.80
2023-04-12T00:33:23.879Z,9.35
2023-04-12T00:35:51.225Z,7.63
2023-04-12T00:38:18.929Z,7.05
2023-04-12T00:40:46.397Z,8.05
2023-04-12T00:43:18.948Z,9.00
2023-04-12T00:45:47.920Z,9.23
2023-04-12T00:48:16.659Z,7.93
2023-04-12T00:50:47.703Z,8.98
2023-04-12T00:53:17.765Z,7.43
2023-04-12T00:55:46.455Z,8.27
2023-04-12T00:58:15.062Z,9.10
2023-04-12T01:00:50.348Z,8.00
2023-04-12T01:03:27.827Z,6.68
2023-04-12T01:06:38.633Z,6.45
2023-04-12T01:09:25.812Z,7.85
2023-04-12T01:12:02.097Z,10.05
2023-04-12T01:15:06.804Z,8.88
2023-04-12T01:17:44.185Z,8.40
2023-04-12T01:20:48.567Z,8.63
2023-04-12T01:23:56.729Z,7.00
2023-04-12T01:26:49.120Z,7.82
2023-04-12T01:29:21.270Z,7.50
2023-04-12T01:32:12.404Z,6.35
2023-04-12T01:34:42.578Z,6.90
2023-04-12T01:37:10.684Z,5.80
2023-04-12T01:39:38.865Z,7.70
2023-04-12T01:42:06.741Z,6.47
2023-04-12T01:44:33.996Z,7.00
2023-04-12T01:47:01.598Z,7.00
2023-04-12T01:49:54.167Z,7.13
2023-04-12T01:52:27.246Z,8.70
2023-04-12T01:54:59.354Z,8.00
2023-04-12T01:57:27.937Z,7.88
2023-04-12T01:59:59.094Z,6.85
2023-04-12T02:02:27.482Z,7.78
2023-04-12T02:04:56.604Z,8.30
2023-04-12T02:07:24.263Z,8.85
2023-04-12T02:09:51.589Z,8.77
2023-04-12T02:12:19.220Z,6.93
2023-04-12T02:14:47.198Z,6.47
2023-04-12T02:17:14.827Z,6.32
2023-04-12T02:19:42.078Z,7.65
2023-04-12T02:22:09.827Z,7.65
2023-04-12T02:24:37.222Z,7.80
2023-04-12T02:27:04.898Z,6.78
2023-04-12T02:29:32.167Z,11.15
2023-04-12T02:31:59.783Z,9.30
2023-04-12T02:34:27.209Z,10.57
2023-04-12T02:36:54.850Z,9.48
2023-04-12T02:39:22.394Z,7.93
2023-04-12T02:41:50.081Z,8.35
2023-04-12T02:44:17.274Z,7.88
2023-04-12T02:46:44.887Z,7.85
2023-04-12T02:49:12.092Z,7.78
2023-04-12T02:51:40.139Z,8.55
2023-04-12T02:54:07.435Z,8.18
2023-04-12T02:56:38.145Z,7.43
2023-04-12T02:59:06.920Z,9.05
2023-04-12T03:01:35.008Z,6.45
2023-04-12T03:04:02.568Z,8.77
2023-04-12T03:06:30.370Z,7.82
2023-04-12T03:08:58.270Z,9.35
2023-04-12T03:11:26.084Z,9.85
2023-04-12T03:13:53.538Z,10.23
2023-04-12T03:16:26.219Z,8.32
2023-04-12T03:18:53.617Z,8.35
2023-04-12T03:21:21.245Z,11.50
2023-04-12T03:23:48.613Z,8.75
2023-04-12T03:26:16.195Z,7.50
2023-04-12T03:28:43.489Z,8.00
2023-04-12T03:31:11.057Z,8.15
2023-04-12T03:33:39.066Z,8.52
2023-04-12T03:36:07.505Z,8.80
2023-04-12T03:38:34.832Z,9.73
2023-04-12T03:41:02.407Z,7.93
2023-04-12T03:43:35.959Z,9.63
2023-04-12T03:46:07.029Z,10.50
2023-04-12T03:48:34.992Z,9.32
2023-04-12T03:51:07.868Z,8.95
2023-04-12T03:53:35.445Z,7.63
2023-04-12T03:56:03.044Z,8.02
2023-04-12T03:58:30.468Z,8.95
2023-04-12T04:00:58.276Z,10.02
2023-04-12T04:03:27.208Z,7.65
2023-04-12T04:05:55.907Z,7.43
2023-04-12T04:08:23.211Z,7.85
2023-04-12T04:10:50.921Z,10.95
2023-04-12T04:13:18.166Z,9.88
2023-04-12T04:15:46.192Z,13.05
2023-04-12T04:18:13.432Z,11.73
2023-04-12T04:20:41.564Z,7.57
2023-04-12T04:23:10.365Z,7.95
2023-04-12T04:25:39.434Z,9.65
2023-04-12T04:28:07.971Z,11.15
2023-04-12T04:30:39.172Z,11.73
2023-04-12T04:33:07.328Z,9.02
2023-04-12T04:35:34.996Z,10.85
2023-04-12T04:38:02.218Z,9.90
2023-04-12T04:40:29.927Z,10.18
2023-04-12T04:42:57.975Z,10.18
2023-04-12T04:45:26.782Z,12.57
2023-04-12T04:47:55.402Z,19.00
2023-04-12T04:50:25.184Z,12.77
2023-04-12T04:52:52.666Z,14.68
2023-04-12T04:55:24.955Z,14.15
2023-04-12T04:57:52.265Z,13.52
2023-04-12T05:00:21.633Z,14.38
2023-04-12T05:02:49.045Z,12.02
2023-04-12T05:05:17.308Z,14.10
2023-04-12T05:07:44.668Z,12.55
2023-04-12T05:10:12.437Z,11.60
2023-04-12T05:12:39.942Z,15.00
2023-04-12T05:15:11.462Z,11.45
2023-04-12T05:17:39.233Z,10.90
2023-04-12T05:20:08.160Z,11.07
2023-04-12T05:22:36.178Z,11.88
2023-04-12T05:25:04.047Z,10.68
2023-04-12T05:27:31.565Z,11.38
2023-04-12T05:29:59.266Z,12.55
2023-04-12T05:32:26.865Z,12.77
2023-04-12T05:34:54.500Z,17.23
2023-04-12T05:37:21.823Z,13.10
2023-04-12T05:39:49.448Z,12.30
2023-04-12T05:42:16.823Z,11.57
2023-04-12T05:44:46.501Z,13.43
2023-04-12T05:47:15.101Z,12.45
2023-04-12T05:49:42.766Z,12.82
2023-04-12T05:52:10.187Z,11.45
2023-04-12T05:54:37.790Z,11.52
2023-04-12T05:57:05.126Z,13.98
2023-04-12T05:59:32.720Z,13.13
2023-04-12T06:02:00.961Z,14.98
2023-04-12T06:04:42.103Z,12.13
2023-04-12T06:07:19.025Z,10.95
2023-04-12T06:09:47.417Z,10.65
2023-04-12T06:12:14.848Z,10.52
2023-04-12T06:14:42.776Z,8.57
2023-04-12T06:17:10.103Z,9.48
2023-04-12T06:19:37.748Z,11.25
2023-04-12T06:22:05.001Z,12.48
2023-04-12T06:24:32.724Z,13.13
2023-04-12T06:26:59.915Z,13.77
2023-04-12T06:29:27.562Z,11.73
2023-04-12T06:31:54.855Z,10.77
2023-04-12T06:34:22.483Z,10.07
2023-04-12T06:36:49.866Z,8.95
2023-04-12T06:39:17.689Z,8.00
2023-04-12T06:41:47.481Z,9.90
2023-04-12T06:44:15.076Z,10.73
2023-04-12T06:46:42.691Z,11.32
2023-04-12T06:49:10.736Z,10.43
2023-04-12T06:51:37.954Z,8.80
2023-04-12T06:54:06.133Z,8.55
2023-04-12T06:56:33.588Z,8.57
2023-04-12T06:59:01.420Z,9.45
2023-04-12T07:01:28.766Z,7.53
2023-04-12T07:03:56.662Z,7.88
2023-04-12T07:06:25.998Z,8.52
2023-04-12T07:08:54.515Z,7.65
2023-04-12T07:11:23.251Z,8.30
2023-04-12T07:13:51.830Z,8.18
2023-04-12T07:16:19.472Z,7.65
2023-04-12T07:18:47.701Z,8.95
2023-04-12T07:21:17.556Z,9.10
2023-04-12T07:23:46.674Z,7.32
2023-04-12T07:26:14.059Z,7.03
2023-04-12T07:28:41.664Z,7.18
2023-04-12T07:31:09.278Z,6.85
2023-04-12T07:33:39.409Z,6.40
2023-04-12T07:36:08.496Z,6.50
2023-04-12T07:38:36.268Z,8.77
2023-04-12T07:41:03.783Z,10.23
2023-04-12T07:43:31.451Z,5.70
2023-04-12T07:45:59.445Z,7.20
2023-04-12T07:48:27.211Z,6.88
2023-04-12T07:50:54.540Z,7.68
2023-04-12T07:53:29.654Z,7.15
2023-04-12T07:55:57.230Z,5.68
2023-04-12T07:58:25.532Z,5.32
2023-04-12T08:00:54.164Z,6.68
2023-04-12T08:03:21.991Z,12.77
2023-04-12T08:05:53.613Z,16.15
2023-04-12T08:08:22.812Z,6.95
2023-04-12T08:10:52.100Z,5.00
2023-04-12T08:13:20.379Z,4.95
2023-04-12T08:15:48.252Z,5.75
2023-04-12T08:18:16.210Z,4.93
2023-04-12T08:20:44.361Z,4.30
2023-04-12T08:23:12.530Z,3.13
2023-04-12T08:25:40.167Z,3.95
2023-04-12T08:28:10.984Z,3.00
2023-04-12T08:30:38.462Z,5.75
2023-04-12T08:33:06.208Z,4.32
2023-04-12T08:35:33.983Z,5.85
2023-04-12T08:38:07.507Z,4.80
2023-04-12T08:40:35.856Z,4.60
2023-04-12T08:43:12.564Z,5.50
2023-04-12T08:45:40.021Z,4.85
2023-04-12T08:48:07.836Z,6.63
2023-04-12T08:50:35.199Z,6.43
2023-04-12T08:53:03.856Z,7.07
2023-04-12T08:55:31.221Z,5.55
2023-04-12T08:58:00.225Z,7.72
2023-04-12T09:00:27.902Z,5.70
2023-04-12T09:02:55.842Z,4.95
2023-04-12T09:05:30.414Z,4.28
2023-04-12T09:07:59.052Z,4.80
2023-04-12T09:10:37.042Z,5.32
2023-04-12T09:13:06.499Z,4.38
2023-04-12T09:15:34.963Z,3.65
2023-04-12T09:18:17.136Z,4.75
2023-04-12T09:20:44.814Z,6.55
2023-04-12T09:23:21.930Z,4.32
2023-04-12T09:25:52.829Z,5.20
2023-04-12T09:28:26.751Z,5.22
2023-04-12T09:30:56.325Z,25.10
2023-04-12T09:33:39.218Z,92.53
2023-04-12T09:36:14.451Z,32.72
2023-04-12T09:39:04.533Z,14.25
2023-04-12T09:41:32.208Z,8.25
2023-04-12T09:44:01.717Z,4.93
2023-04-12T09:46:29.195Z,6.80
2023-04-12T09:49:03.296Z,9.82
2023-04-12T09:51:36.507Z,5.25
2023-04-12T09:54:06.968Z,2.97
2023-04-12T09:56:36.766Z,16.73
2023-04-12T09:59:07.275Z,14.70
2023-04-12T10:01:42.386Z,3.05
2023-04-12T10:04:10.540Z,4.18
2023-04-12T10:06:38.065Z,3.88
2023-04-12T10:09:06.962Z,3.33
2023-04-12T10:11:34.882Z,3.17
2023-04-12T10:14:03.562Z,3.88
2023-04-12T10:16:34.145Z,3.28
2023-04-12T10:19:04.389Z,2.15
2023-04-12T10:21:32.120Z,2.70
2023-04-12T10:24:01.082Z,3.28
2023-04-12T10:26:28.660Z,3.55
2023-04-12T10:29:26.222Z,4.05
2023-04-12T10:31:59.440Z,2.90
2023-04-12T10:34:31.572Z,2.53
2023-04-12T10:37:01.298Z,2.47
2023-04-12T10:39:44.493Z,1.70
2023-04-12T10:42:20.618Z,2.75
2023-04-12T10:44:49.040Z,1.48
2023-04-12T10:47:17.435Z,2.22
2023-04-12T10:50:26.738Z,2.22
2023-04-12T10:53:18.343Z,3.08
2023-04-12T10:55:46.160Z,2.42
2023-04-12T10:58:48.874Z,1.98
2023-04-12T11:01:18.818Z,1.92
2023-04-12T11:04:16.865Z,1.73
2023-04-12T11:06:54.932Z,2.60
2023-04-12T11:09:25.978Z,1.83
2023-04-12T11:12:17.248Z,2.22
2023-04-12T11:14:52.048Z,2.65
2023-04-12T11:17:23.240Z,2.00
2023-04-12T11:20:02.336Z,2.42
2023-04-12T11:22:33.851Z,6.75
2023-04-12T11:25:03.537Z,2.55
2023-04-12T11:27:32.362Z,1.95
2023-04-12T11:30:01.614Z,2.53
2023-04-12T11:32:31.026Z,1.90
2023-04-12T11:34:59.401Z,3.38
2023-04-12T11:37:27.441Z,3.38
2023-04-12T11:39:58.607Z,2.22
2023-04-12T11:42:29.415Z,2.40
2023-04-12T11:45:00.520Z,2.80
2023-04-12T11:47:30.987Z,2.40
2023-04-12T11:49:59.530Z,4.22
2023-04-12T11:52:32.708Z,9.63
2023-04-12T11:55:07.013Z,11.73
2023-04-12T11:57:35.595Z,3.03
2023-04-12T12:00:06.635Z,2.45
2023-04-12T12:02:43.728Z,2.53
2023-04-12T12:05:13.892Z,3.15
2023-04-12T12:07:42.040Z,5.07
2023-04-12T12:10:10.576Z,5.97
2023-04-12T12:12:38.313Z,6.90
2023-04-12T12:15:06.472Z,8.73
2023-04-12T12:17:40.707Z,6.70
2023-04-12T12:20:20.561Z,3.80
2023-04-12T12:22:49.247Z,2.65
2023-04-12T12:25:19.467Z,3.75
2023-04-12T12:27:51.372Z,3.22
2023-04-12T12:30:22.174Z,5.03
2023-04-12T12:32:54.538Z,4.68
2023-04-12T12:35:21.862Z,6.63
2023-04-12T12:37:52.683Z,5.05
2023-04-12T12:40:32.563Z,5.97
2023-04-12T12:43:00.899Z,3.70
2023-04-12T12:45:31.590Z,6.07
2023-04-12T12:48:05.005Z,4.20
2023-04-12T12:50:35.045Z,3.40
2023-04-12T12:53:04.128Z,4.55
2023-04-12T12:55:31.923Z,5.15
2023-04-12T13:00:30.514Z,5.65
2023-04-12T13:02:58.966Z,5.80
2023-04-12T13:05:26.665Z,3.72
2023-04-12T13:07:54.273Z,4.32
2023-04-12T13:10:21.694Z,4.47
2023-04-12T13:12:49.376Z,5.78
2023-04-12T13:15:23.132Z,4.28
2023-04-12T13:17:53.600Z,4.55
2023-04-12T13:20:24.361Z,4.28
2023-04-12T13:22:52.296Z,4.88
2023-04-12T13:25:20.977Z,3.92
2023-04-12T13:27:50.370Z,3.78
2023-04-12T13:30:19.926Z,6.53
2023-04-12T13:32:47.598Z,6.32
2023-04-12T13:35:14.960Z,6.53
2023-04-12T13:37:42.633Z,5.45
2023-04-12T13:40:10.430Z,3.42
2023-04-12T13:42:38.070Z,5.22
2023-04-12T13:45:07.114Z,5.88
2023-04-12T13:47:35.497Z,3.55
2023-04-12T13:50:02.931Z,3.17
2023-04-12T13:52:30.540Z,4.50
2023-04-12T13:54:59.707Z,3.70
2023-04-12T13:57:27.290Z,5.32
2023-04-12T13:59:54.597Z,2.67
2023-04-12T14:02:22.027Z,3.50
2023-04-12T14:04:55.238Z,3.08
2023-04-12T14:07:29.549Z,4.45
2023-04-12T14:09:57.898Z,3.60
2023-04-12T14:12:25.139Z,3.80
2023-04-12T14:14:52.806Z,3.13
2023-04-12T14:17:20.142Z,3.83
2023-04-12T14:19:47.829Z,4.50
2023-04-12T14:22:15.026Z,3.67
2023-04-12T14:24:42.600Z,4.47
2023-04-12T14:27:09.935Z,3.15
2023-04-12T14:29:39.628Z,3.05
2023-04-12T14:32:06.829Z,2.75
2023-04-12T14:34:34.542Z,2.63
2023-04-12T14:37:01.887Z,3.03
2023-04-12T14:39:30.879Z,2.75
2023-04-12T14:41:58.184Z,4.90
2023-04-12T14:44:26.461Z,7.22
2023-04-12T14:46:53.806Z,3.35
2023-04-12T14:49:21.431Z,3.30
2023-04-12T14:51:48.654Z,7.22
2023-04-12T14:54:16.311Z,3.42
2023-04-12T14:56:51.471Z,4.53
2023-04-12T14:59:20.263Z,4.32
2023-04-12T15:01:47.648Z,3.63
2023-04-12T15:04:15.449Z,3.10
2023-04-12T15:06:43.830Z,3.42
2023-04-12T15:09:13.598Z,4.60
2023-04-12T15:11:46.324Z,3.30
2023-04-12T15:14:20.961Z,3.72
2023-04-12T15:16:51.874Z,3.63
2023-04-12T15:19:23.106Z,3.05
2023-04-12T15:21:55.521Z,3.97
2023-04-12T15:24:25.128Z,2.47
2023-04-12T15:26:53.298Z,3.50
2023-04-12T15:29:26.863Z,3.97
2023-04-12T15:31:56.714Z,3.70
2023-04-12T15:34:25.326Z,2.97
2023-04-12T15:36:53.016Z,4.30
2023-04-12T15:39:21.293Z,5.53
2023-04-12T15:41:48.888Z,2.97
2023-04-12T15:44:16.814Z,3.22
2023-04-12T15:46:56.053Z,3.13
2023-04-12T15:49:32.075Z,4.30
2023-04-12T15:52:00.833Z,3.25
2023-04-12T15:54:28.503Z,2.97
2023-04-12T15:56:55.863Z,3.80
2023-04-12T15:59:24.104Z,4.18
2023-04-12T16:01:52.349Z,3.72
2023-04-12T16:04:20.732Z,3.95
2023-04-12T16:06:48.212Z,2.17
2023-04-12T16:09:16.857Z,3.38
2023-04-12T16:11:46.538Z,3.05
2023-04-12T16:14:14.758Z,2.92
2023-04-12T16:16:42.166Z,4.53
2023-04-12T16:19:09.961Z,3.45
2023-04-12T16:21:40.560Z,3.17
2023-04-12T16:24:10.275Z,3.60
2023-04-12T16:26:39.262Z,5.07
2023-04-12T16:29:06.868Z,3.22
2023-04-12T16:31:34.254Z,3.60
2023-04-12T16:34:02.180Z,4.93
2023-04-12T16:36:31.480Z,2.70
2023-04-12T16:39:01.217Z,4.10
2023-04-12T16:41:28.587Z,5.40
2023-04-12T16:44:01.688Z,6.43
2023-04-12T16:46:29.083Z,4.85
2023-04-12T16:48:59.140Z,3.83
2023-04-12T16:51:27.280Z,3.88
2023-04-12T16:54:04.849Z,4.20
2023-04-12T16:56:32.339Z,3.08
2023-04-12T16:59:00.187Z,2.92
2023-04-12T17:01:27.511Z,2.80
2023-04-12T17:03:55.226Z,2.60
2023-04-12T17:06:22.638Z,3.35
2023-04-12T17:08:50.257Z,2.05
2023-04-12T17:11:17.544Z,2.80
2023-04-12T17:13:46.442Z,2.85
2023-04-12T17:16:16.330Z,2.83
2023-04-12T17:18:44.206Z,2.97
2023-04-12T17:21:11.879Z,3.38
2023-04-12T17:23:39.599Z,4.05
2023-04-12T17:26:08.433Z,3.47
2023-04-12T17:28:38.948Z,2.97
2023-04-12T17:31:08.994Z,2.38
2023-04-12T17:33:37.818Z,2.88
2023-04-12T17:36:11.347Z,2.97
2023-04-12T17:38:39.331Z,3.53
2023-04-12T17:41:09.366Z,2.50
2023-04-12T17:43:37.024Z,2.47
2023-04-12T17:46:05.830Z,2.88
2023-04-12T17:48:33.488Z,2.88
2023-04-12T17:51:02.499Z,2.55
2023-04-12T17:53:30.139Z,2.75
2023-04-12T17:55:57.674Z,4.22
2023-04-12T17:58:25.203Z,3.22
2023-04-12T18:00:52.701Z,6.03
2023-04-12T18:03:20.712Z,5.47
2023-04-12T18:05:48.226Z,4.00
2023-04-12T18:08:17.121Z,4.28
2023-04-12T18:10:45.553Z,4.90
2023-04-12T18:13:13.168Z,6.20
2023-04-12T18:15:40.521Z,4.93
2023-04-12T18:18:08.220Z,5.05
2023-04-12T18:20:35.702Z,6.65
2023-04-12T18:23:03.420Z,4.82
2023-04-12T18:25:31.049Z,4.10
2023-04-12T18:27:59.166Z,5.15
2023-04-12T18:30:26.531Z,6.60
2023-04-12T18:32:54.237Z,7.18
2023-04-12T18:35:21.638Z,5.95
2023-04-12T18:37:49.232Z,7.90
2023-04-12T18:40:16.807Z,7.70
2023-04-12T18:42:46.135Z,9.40
2023-04-12T18:45:13.471Z,10.00
2023-04-12T18:47:42.218Z,9.38
2023-04-12T18:50:10.182Z,7.47
2023-04-12T18:52:38.845Z,9.90
2023-04-12T18:55:07.247Z,12.13
2023-04-12T18:57:34.858Z,11.20
2023-04-12T19:00:05.620Z,12.45
2023-04-12T19:02:34.739Z,13.10
2023-04-12T19:05:03.163Z,15.13
2023-04-12T19:07:31.142Z,13.68
2023-04-12T19:09:58.437Z,13.38
2023-04-12T19:12:26.250Z,14.15
2023-04-12T19:14:53.617Z,17.17
2023-04-12T19:17:27.815Z,12.02
2023-04-12T19:19:56.056Z,13.60
2023-04-12T19:22:27.482Z,13.15
2023-04-12T19:24:55.065Z,13.80
2023-04-12T19:27:23.222Z,11.77
2023-04-12T19:29:51.786Z,13.32
2023-04-12T19:32:19.635Z,12.07
2023-04-12T19:34:47.805Z,13.32
2023-04-12T19:37:15.385Z,14.90
2023-04-12T19:39:42.679Z,14.25
2023-04-12T19:42:11.075Z,13.18
2023-04-12T19:44:40.279Z,13.60
2023-04-12T19:47:08.168Z,13.27
2023-04-12T19:49:36.974Z,14.48
2023-04-12T19:52:05.783Z,13.25
2023-04-12T19:54:33.631Z,11.63
2023-04-12T19:57:04.615Z,13.98
2023-04-12T19:59:34.444Z,15.40
2023-04-12T20:02:02.103Z,15.98
2023-04-12T20:04:36.435Z,14.13
2023-04-12T20:07:04.914Z,16.08
2023-04-12T20:09:32.420Z,13.85
2023-04-12T20:12:00.060Z,13.90
2023-04-12T20:14:27.427Z,12.35
2023-04-12T20:16:56.966Z,14.70
2023-04-12T20:19:25.557Z,13.05
2023-04-12T20:22:00.480Z,12.55
2023-04-12T20:24:30.146Z,12.57
2023-04-12T20:26:57.876Z,13.25
2023-04-12T20:29:25.244Z,14.32
2023-04-12T20:31:53.748Z,14.05
2023-04-12T20:34:21.169Z,14.32
2023-04-12T20:36:48.769Z,13.25
2023-04-12T20:39:16.421Z,14.77
2023-04-12T20:41:50.047Z,14.45
2023-04-12T20:44:19.957Z,12.30
2023-04-12T20:46:49.097Z,12.43
2023-04-12T20:49:16.742Z,12.27
2023-04-12T20:51:46.832Z,11.13
2023-04-12T20:54:14.436Z,12.60
2023-04-12T20:56:42.106Z,17.05
2023-04-12T20:59:10.536Z,16.52
2023-04-12T21:01:38.211Z,15.18
2023-04-12T21:04:06.777Z,16.08
2023-04-12T21:06:34.670Z,18.38
2023-04-12T21:09:04.384Z,18.48
2023-04-12T21:11:32.364Z,22.23
2023-04-12T21:13:59.692Z,21.50
2023-04-12T21:16:27.364Z,24.45
2023-04-12T21:18:54.699Z,17.17
2023-04-12T21:21:22.655Z,22.02
2023-04-12T21:23:51.595Z,18.50
2023-04-12T21:26:19.153Z,20.40
2023-04-12T21:28:46.510Z,21.77
2023-04-12T21:31:14.168Z,20.13
2023-04-12T21:33:41.827Z,20.80
2023-04-12T21:36:10.294Z,19.77
2023-04-12T21:38:37.600Z,20.88
2023-04-12T21:41:13.009Z,24.48
2023-04-12T21:43:40.877Z,22.15
2023-04-12T21:46:09.089Z,23.75
2023-04-12T21:48:36.977Z,20.50
2023-04-12T21:51:10.836Z,22.33
2023-04-12T21:53:38.083Z,22.40
2023-04-12T21:56:06.606Z,20.30
2023-04-12T21:58:34.240Z,22.88
2023-04-12T22:01:02.643Z,18.65
2023-04-12T22:03:30.039Z,20.05
2023-04-12T22:06:04.267Z,23.40
2023-04-12T22:08:33.208Z,23.77
2023-04-12T22:11:01.490Z,24.35
2023-04-12T22:13:28.899Z,25.00
2023-04-12T22:15:57.906Z,22.98
2023-04-12T22:18:25.250Z,19.75
2023-04-12T22:20:53.042Z,23.25
2023-04-12T22:23:20.293Z,20.73
2023-04-12T22:25:49.619Z,19.92
2023-04-12T22:28:17.185Z,21.20
2023-04-12T22:30:46.864Z,19.27
2023-04-12T22:33:16.006Z,19.88
2023-04-12T22:35:44.140Z,18.58
2023-04-12T22:38:13.928Z,21.85
2023-04-12T22:40:41.429Z,19.58
2023-04-12T22:43:18.130Z,20.98
2023-04-12T22:45:48.391Z,21.20
2023-04-12T22:48:15.979Z,21.30
2023-04-12T22:50:47.063Z,20.33
2023-04-12T22:53:15.894Z,22.52
2023-04-12T22:55:44.021Z,20.65
2023-04-12T22:58:11.391Z,21.88
2023-04-12T23:00:39.471Z,24.10
2023-04-12T23:03:10.907Z,22.75
2023-04-12T23:05:39.093Z,22.42
2023-04-12T23:08:06.428Z,22.63
2023-04-12T23:10:34.324Z,22.50
2023-04-12T23:13:01.556Z,25.85
2023-04-12T23:15:30.611Z,23.40
2023-04-12T23:17:57.821Z,23.05
2023-04-12T23:20:25.443Z,23.08
2023-04-12T23:22:58.161Z,24.35
2023-04-12T23:25:39.762Z,21.50
2023-04-12T23:28:13.255Z,22.38
2023-04-12T23:30:49.674Z,23.50
2023-04-12T23:33:21.654Z,25.42
2023-04-12T23:35:55.987Z,21.10
2023-04-12T23:38:32.321Z,21.67
2023-04-12T23:41:06.367Z,22.05
2023-04-12T23:43:34.973Z,22.35
2023-04-12T23:46:03.557Z,20.42
2023-04-12T23:48:32.834Z,24.77
2023-04-12T23:51:00.755Z,22.30
2023-04-12T23:53:28.184Z,21.65
2023-04-12T23:55:56.142Z,23.33
2023-04-12T23:58:25.537Z,19.85
